Terminal Aerodrome Forecast
Issued by NWS

Home | Current Version | Previous Version | Text Only | Print | Product List | Glossary On
Versions: 1 2 3 4 5 6 7 8 9 10 11 12 13 14 15 16 17 18 19 20 21 22 23 24 25 26 27 28 29 30 31
000
FTUS43 KDVN 172338
TAFCID
TAF
KCID 172338Z 1800/1824 09009KT P6SM BKN250
     FM181000 09013G18KT P6SM OVC035
     FM181300 07018G23KT 5SM FZRAPL BR VCTS OVC015CB
     FM181630 03013G18KT 1SM -SN OVC009
     FM182000 36015G20KT 2SM -SN BR OVC007=

USA.gov is the U.S. government's official web portal to all federal, state and local government web resources and services.